Flight Track Log - Related Links

Times and Time Zones

All times are in EDT time to prevent confusion due to time zone crossing. See the SVA1495 flight status page for this flight to view local times or setup timezone preferences in your user account.

Time Position Orientation Groundspeed Altitude Reporting Facility
EDT Latitude Longitude Course Direction KTS MPH feet Rate Location/Type
Wed 03:36:00 PM 27.2500 44.9095 225° Southwest  Level Estimated
Wed 03:37:00 PM 27.1773 44.8293 224° Southwest  Level Estimated
Wed 03:38:00 PM 27.1046 44.7492 224° Southwest  Level Estimated
Wed 03:39:00 PM 27.0317 44.6693 224° Southwest  Level Estimated
Wed 03:40:00 PM 26.9589 44.5894 224° Southwest  Level Estimated
Wed 03:41:00 PM 26.8860 44.5096 224° Southwest  Level Estimated
Wed 03:42:00 PM 26.8131 44.4299 224° Southwest  Level Estimated
Wed 03:43:00 PM 26.7401 44.3504 224° Southwest  Level Estimated
Wed 03:44:00 PM 26.6670 44.2709 224° Southwest  Level Estimated
Wed 03:45:00 PM 26.5940 44.1916 224° Southwest  Level Estimated
Wed 03:46:00 PM 26.5208 44.1123 224° Southwest  Level Estimated
Wed 03:47:00 PM 26.4477 44.0331 224° Southwest  Level Estimated
Wed 03:48:00 PM 26.3745 43.9541 224° Southwest  Level Estimated
Wed 03:49:00 PM 26.3012 43.8751 224° Southwest  Level Estimated
Wed 03:50:00 PM 26.2279 43.7963 224° Southwest  Level Estimated
Wed 03:51:00 PM 26.1546 43.7175 224° Southwest  Level Estimated
Wed 03:52:00 PM 26.0812 43.6388 224° Southwest  Level Estimated
Wed 03:53:00 PM 26.0078 43.5603 224° Southwest  Level Estimated
Wed 03:54:00 PM 25.9343 43.4818 224° Southwest  Level Estimated
Wed 03:55:00 PM 25.8608 43.4035 224° Southwest  Level Estimated
Wed 03:56:00 PM 25.7873 43.3252 224° Southwest  Level Estimated
Wed 03:57:00 PM 25.7137 43.2470 224° Southwest  Level Estimated
Wed 03:58:00 PM 25.6401 43.1689 224° Southwest  Level Estimated
Wed 03:59:00 PM 25.5664 43.0910 224° Southwest  Level Estimated
Wed 04:00:00 PM 25.4927 43.0131 224° Southwest  Level Estimated
Wed 04:01:00 PM 25.4189 42.9353 224° Southwest  Level Estimated
Wed 04:02:00 PM 25.3451 42.8576 224° Southwest  Level Estimated
Wed 04:03:00 PM 25.2713 42.7800 224° Southwest  Level Estimated
Wed 04:04:00 PM 25.1974 42.7025 224° Southwest  Level Estimated
Wed 04:05:00 PM 25.1235 42.6251 223° Southwest  Level Estimated
Wed 04:06:00 PM 25.0495 42.5478 223° Southwest  Level Estimated
Wed 04:07:00 PM 24.9755 42.4706 223° Southwest  Level Estimated
Wed 04:08:00 PM 24.9015 42.3934 223° Southwest  Level Estimated
Wed 04:09:00 PM 24.8274 42.3164 223° Southwest  Level Estimated
Wed 04:10:00 PM 24.7533 42.2395 223° Southwest  Level Estimated
Wed 04:11:00 PM 24.6791 42.1626 223° Southwest  Level Estimated
Wed 04:12:00 PM 24.6049 42.0858 223° Southwest  Level Estimated
Wed 04:13:00 PM 24.5307 42.0092 223° Southwest  Level Estimated
Wed 04:14:00 PM 24.4564 41.9326 223° Southwest  Level Estimated
Wed 04:15:00 PM 24.3821 41.8561 223° Southwest  Level Estimated
Wed 04:16:00 PM 24.3078 41.7797 223° Southwest  Level Estimated
Wed 04:17:00 PM 24.2334 41.7034 223° Southwest  Level Estimated
Wed 04:18:00 PM 24.1589 41.6272 223° Southwest  Level Estimated
Wed 04:19:00 PM 24.0845 41.5510 223° Southwest  Level Estimated
Wed 04:20:00 PM 24.0100 41.4750 223° Southwest  Level Estimated
Wed 04:21:00 PM 23.9354 41.3991 223° Southwest  Level Estimated
Wed 04:22:00 PM 23.8609 41.3232 223° Southwest  Level Estimated
Wed 04:23:00 PM 23.7862 41.2474 223° Southwest  Level Estimated
Wed 04:24:00 PM 23.7116 41.1717 223° Southwest  Level Estimated
Wed 04:25:00 PM 23.6369 41.0961 223° Southwest  Level Estimated
Wed 04:26:00 PM 23.5622 41.0206 223° Southwest  Level Estimated
Wed 04:27:00 PM 23.4874 40.9452 223° Southwest  Level Estimated
Wed 04:28:00 PM 23.4126 40.8698 223° Southwest  Level Estimated
Wed 04:29:00 PM 23.3378 40.7946 223° Southwest  Level Estimated
Wed 04:30:00 PM 23.2629 40.7194 223° Southwest  Level Estimated
Wed 04:31:00 PM 23.1880 40.6443 223° Southwest  Level Estimated
Wed 04:32:00 PM 23.1131 40.5693 223° Southwest  Level Estimated
Wed 04:33:00 PM 23.0381 40.4943 223° Southwest  Level Estimated
Wed 04:34:00 PM 22.9631 40.4195 223° Southwest  Level Estimated
Wed 04:35:00 PM 22.8881 40.3447 223° Southwest  Level Estimated
Wed 04:36:00 PM 22.8130 40.2701 223° Southwest  Level Estimated
Wed 04:37:00 PM 22.7379 40.1955 222° Southwest  Level Estimated
Wed 04:38:00 PM 22.6627 40.1210 222° Southwest  Level Estimated
Wed 04:39:00 PM 22.5875 40.0465 222° Southwest  Level Estimated
Wed 04:40:00 PM 22.5123 39.9722 222° Southwest  Level Estimated
Wed 04:41:00 PM 22.4371 39.8979 222° Southwest  Level Estimated
Wed 04:42:00 PM 22.3618 39.8237 222° Southwest  Level Estimated
Wed 04:43:00 PM 22.2865 39.7496 222° Southwest  Level Estimated
Wed 04:44:00 PM 22.2111 39.6756 222° Southwest  Level Estimated
Wed 04:45:00 PM 22.1357 39.6016 222° Southwest  Level Estimated
Wed 04:46:00 PM 22.0603 39.5278 222° Southwest  Level Estimated
Wed 04:47:00 PM 21.9848 39.4540 222° Southwest  Level Estimated
Wed 04:48:00 PM 21.9094 39.3803 222° Southwest  Level Estimated
Wed 04:49:00 PM 21.8338 39.3066 222° Southwest  Level Estimated
Wed 04:50:00 PM 21.7583 39.2331 222° Southwest  Level Estimated
Wed 04:51:00 PM 21.6827 39.1596 222° Southwest  Level Estimated
Wed 04:52:00 PM 21.6796 39.1565 222° Southwest  Level Estimated
Wed 04:53:00 PM 21.6796 39.1565 317° Northwest  Level Estimated
Wed 04:54:00 PM 21.6796 39.1565 317° Northwest  Level Estimated
Wed 04:55:00 PM 21.6796 39.1565 317° Northwest  Level Estimated
Wed 04:56:00 PM 21.6796 39.1565 317° Northwest  Level Estimated
Wed 04:57:00 PM 21.6796 39.1565 317° Northwest  Level Estimated
Wed 04:58:00 PM 21.6796 39.1565 317° Northwest  Level Estimated
Wed 04:59:00 PM 21.6796 39.1565 317° Northwest  Level Estimated
Wed 05:00:00 PM 21.6796 39.1565 317° Northwest  Level Estimated
Wed 05:01:00 PM 21.6796 39.1565 317° Northwest  Level Estimated
Wed 05:02:00 PM 21.6796 39.1565 317° Northwest  Level Estimated
Wed 05:03:00 PM 21.6796 39.1565 317° Northwest  Level Estimated
Wed 05:04:00 PM 21.6796 39.1565 317° Northwest  Level Estimated
Wed 05:05:00 PM 21.6796 39.1565 317° Northwest  Level Estimated
Wed 05:06:00 PM 21.6796 39.1565 317° Northwest  Level Estimated
Wed 05:07:00 PM 21.6796 39.1565 317° Northwest  Level Estimated

Login

Don't have an account? Register now (free) for customized features, flight alerts, and more!